createdAt,value
2019-03-24T00:01:05.767Z,57.23
2019-03-24T00:03:34.357Z,58.03
2019-03-24T00:06:02.988Z,58.60
2019-03-24T00:08:31.595Z,58.58
2019-03-24T00:11:00.168Z,58.67
2019-03-24T00:13:28.753Z,56.20
2019-03-24T00:15:57.332Z,57.70
2019-03-24T00:18:25.928Z,54.93
2019-03-24T00:20:54.566Z,57.80
2019-03-24T00:23:23.156Z,57.63
2019-03-24T00:26:11.125Z,56.87
2019-03-24T00:28:39.715Z,59.20
2019-03-24T00:31:27.611Z,61.47
2019-03-24T00:33:56.213Z,58.17
2019-03-24T00:36:24.771Z,58.17
2019-03-24T00:38:53.373Z,57.33
2019-03-24T00:41:41.276Z,57.70
2019-03-24T00:44:09.873Z,56.10
2019-03-24T00:46:38.445Z,58.45
2019-03-24T00:49:07.117Z,61.80
2019-03-24T00:51:35.684Z,58.13
2019-03-24T00:54:04.520Z,57.98
2019-03-24T00:56:52.504Z,54.03
2019-03-24T00:59:21.100Z,54.20
2019-03-24T01:01:49.665Z,54.70
2019-03-24T01:04:18.431Z,54.17
2019-03-24T01:07:06.299Z,55.90
2019-03-24T01:09:34.976Z,54.87
2019-03-24T01:12:03.607Z,58.20
2019-03-24T01:14:32.207Z,58.30
2019-03-24T01:17:00.767Z,60.60
2019-03-24T01:19:29.376Z,59.18
2019-03-24T01:21:58.012Z,58.15
2019-03-24T01:24:26.632Z,55.30
2019-03-24T01:26:55.194Z,56.50
2019-03-24T01:29:23.791Z,53.53
2019-03-24T01:31:52.371Z,57.62
2019-03-24T01:34:21.024Z,56.90
2019-03-24T01:37:08.999Z,58.10
2019-03-24T01:39:37.601Z,59.48
2019-03-24T01:42:06.167Z,55.00
2019-03-24T01:44:54.106Z,53.33
2019-03-24T01:47:22.680Z,56.10
2019-03-24T01:49:51.285Z,56.55
2019-03-24T01:52:19.857Z,53.85
2019-03-24T01:54:48.464Z,55.17
2019-03-24T01:57:17.028Z,58.00
2019-03-24T01:59:45.590Z,60.15
2019-03-24T02:02:14.192Z,57.90
2019-03-24T02:04:42.861Z,58.25
2019-03-24T02:07:11.464Z,56.33
2019-03-24T02:09:40.031Z,57.03
2019-03-24T02:12:21.117Z,59.25
2019-03-24T02:15:01.755Z,56.65
2019-03-24T02:17:30.419Z,55.05
2019-03-24T02:19:58.987Z,52.95
2019-03-24T02:22:27.594Z,53.08
2019-03-24T02:24:56.236Z,51.60
2019-03-24T02:27:24.843Z,50.25
2019-03-24T02:29:53.416Z,51.58
2019-03-24T02:32:22.021Z,51.43
2019-03-24T02:34:50.614Z,50.65
2019-03-24T02:37:25.206Z,50.15
2019-03-24T02:40:13.179Z,51.33
2019-03-24T02:42:41.860Z,50.17
2019-03-24T02:45:29.830Z,50.20
2019-03-24T02:47:58.501Z,49.38
2019-03-24T02:50:46.507Z,48.50
2019-03-24T02:53:15.078Z,47.53
2019-03-24T02:55:43.643Z,50.70
2019-03-24T02:58:12.245Z,49.65
2019-03-24T03:00:40.808Z,48.80
2019-03-24T03:03:09.414Z,50.60
2019-03-24T03:05:37.984Z,49.15
2019-03-24T03:08:06.666Z,50.73
2019-03-24T03:10:35.243Z,47.58
2019-03-24T03:13:03.910Z,47.70
2019-03-24T03:15:32.477Z,48.90
2019-03-24T03:18:01.075Z,49.80
2019-03-24T03:20:48.977Z,48.48
2019-03-24T03:23:17.617Z,46.68
2019-03-24T03:25:46.181Z,46.65
2019-03-24T03:28:14.785Z,47.70
2019-03-24T03:30:43.352Z,44.65
2019-03-24T03:33:12.022Z,47.98
2019-03-24T03:35:40.594Z,43.33
2019-03-24T03:38:09.185Z,45.63
2019-03-24T03:40:37.822Z,43.92
2019-03-24T03:43:25.756Z,46.02
2019-03-24T03:45:54.313Z,45.95
2019-03-24T03:48:22.905Z,46.75
2019-03-24T03:51:10.902Z,45.05
2019-03-24T03:53:39.463Z,45.67
2019-03-24T03:56:27.394Z,44.58
2019-03-24T03:58:55.957Z,45.33
2019-03-24T04:01:43.888Z,44.60
2019-03-24T04:04:12.450Z,43.30
2019-03-24T04:06:41.055Z,43.98
2019-03-24T04:09:28.953Z,40.88
2019-03-24T04:11:57.548Z,41.18
2019-03-24T04:14:26.122Z,43.63
2019-03-24T04:17:06.236Z,42.40
2019-03-24T04:19:24.934Z,42.30
2019-03-24T04:21:53.515Z,40.58
2019-03-24T04:24:22.075Z,43.38
2019-03-24T04:26:50.674Z,41.73
2019-03-24T04:29:38.576Z,40.75
2019-03-24T04:32:07.243Z,40.48
2019-03-24T04:34:35.809Z,41.20
2019-03-24T04:37:04.408Z,40.78
2019-03-24T04:39:32.973Z,42.67
2019-03-24T04:42:01.571Z,41.10
2019-03-24T04:44:30.133Z,38.85
2019-03-24T04:46:58.724Z,40.67
2019-03-24T04:49:46.622Z,40.05
2019-03-24T04:52:15.217Z,41.08
2019-03-24T04:54:43.784Z,40.03
2019-03-24T04:57:12.377Z,37.67
2019-03-24T04:59:40.944Z,39.83
2019-03-24T05:02:28.872Z,39.18
2019-03-24T05:04:57.435Z,37.03
2019-03-24T05:07:38.358Z,36.23
2019-03-24T05:10:08.820Z,36.20
2019-03-24T05:12:37.427Z,36.10
2019-03-24T05:15:06.331Z,37.15
2019-03-24T05:17:34.927Z,38.53
2019-03-24T05:20:22.816Z,37.48
2019-03-24T05:22:51.403Z,37.98
2019-03-24T05:25:19.968Z,37.10
2019-03-24T05:27:48.568Z,38.02
2019-03-24T05:30:17.129Z,37.25
2019-03-24T05:32:45.787Z,38.38
2019-03-24T05:35:14.348Z,38.15
2019-03-24T05:37:42.941Z,37.08
2019-03-24T05:40:11.654Z,37.93
2019-03-24T05:42:40.264Z,39.03
2019-03-24T05:45:09.267Z,39.23
2019-03-24T05:47:37.831Z,40.08
2019-03-24T05:50:08.138Z,37.25
2019-03-24T05:52:36.693Z,37.15
2019-03-24T05:55:06.930Z,39.92
2019-03-24T05:57:35.500Z,39.38
2019-03-24T06:00:07.241Z,39.25
2019-03-24T06:02:35.807Z,39.60
2019-03-24T06:05:05.332Z,38.95
2019-03-24T06:07:33.972Z,40.73
2019-03-24T06:10:02.635Z,39.38
2019-03-24T06:12:43.628Z,41.92
2019-03-24T06:15:12.652Z,40.85
2019-03-24T06:17:47.822Z,37.83
2019-03-24T06:20:11.699Z,37.05
2019-03-24T06:22:40.265Z,37.73
2019-03-24T06:25:09.526Z,37.55
2019-03-24T06:27:38.072Z,39.38
2019-03-24T06:30:08.376Z,39.90
2019-03-24T06:32:36.937Z,38.65
2019-03-24T06:35:06.864Z,38.67
2019-03-24T06:37:35.709Z,37.83
2019-03-24T06:40:06.043Z,38.80
2019-03-24T06:42:34.608Z,41.25
2019-03-24T06:45:03.680Z,40.60
2019-03-24T06:47:32.244Z,40.55
2019-03-24T06:50:00.837Z,40.78
2019-03-24T06:52:29.581Z,41.77
2019-03-24T06:54:58.169Z,39.90
2019-03-24T06:57:26.805Z,42.13
2019-03-24T06:59:55.400Z,39.92
2019-03-24T07:02:23.969Z,40.38
2019-03-24T07:04:52.643Z,40.60
2019-03-24T07:07:21.207Z,41.88
2019-03-24T07:09:49.800Z,41.55
2019-03-24T07:12:18.365Z,40.33
2019-03-24T07:14:46.968Z,40.77
2019-03-24T07:17:15.611Z,39.80
2019-03-24T07:19:44.205Z,42.40
2019-03-24T07:22:12.771Z,42.67
2019-03-24T07:24:41.367Z,46.80
2019-03-24T07:27:09.929Z,44.87
2019-03-24T07:29:38.516Z,44.27
2019-03-24T07:32:07.148Z,44.73
2019-03-24T07:34:35.741Z,42.93
2019-03-24T07:37:04.376Z,39.90
2019-03-24T07:39:32.964Z,40.93
2019-03-24T07:42:01.525Z,40.27
2019-03-24T07:44:30.122Z,41.53
2019-03-24T07:46:58.688Z,42.53
2019-03-24T07:49:27.301Z,40.07
2019-03-24T07:51:55.861Z,38.93
2019-03-24T07:54:24.420Z,37.83
2019-03-24T07:56:53.010Z,38.50
2019-03-24T07:59:21.577Z,35.00
2019-03-24T08:01:50.168Z,38.00
2019-03-24T08:04:18.732Z,39.37
2019-03-24T08:06:47.321Z,37.30
2019-03-24T08:09:15.879Z,37.90
2019-03-24T08:11:44.479Z,38.23
2019-03-24T08:14:13.042Z,37.83
2019-03-24T08:17:01.057Z,38.03
2019-03-24T08:19:29.616Z,39.73
2019-03-24T08:21:58.285Z,37.80
2019-03-24T08:24:46.181Z,38.30
2019-03-24T08:27:14.774Z,38.03
2019-03-24T08:29:43.324Z,38.30
2019-03-24T08:32:11.920Z,37.17
2019-03-24T08:34:40.482Z,38.93
2019-03-24T08:37:09.169Z,39.40
2019-03-24T08:39:37.711Z,37.33
2019-03-24T08:42:06.369Z,35.60
2019-03-24T08:44:34.926Z,39.40
2019-03-24T08:47:03.585Z,36.97
2019-03-24T08:49:32.144Z,37.33
2019-03-24T08:52:00.736Z,35.53
2019-03-24T08:54:29.306Z,35.53
2019-03-24T08:56:57.936Z,32.80
2019-03-24T08:59:26.500Z,35.17
2019-03-24T09:02:14.486Z,34.70
2019-03-24T09:04:43.053Z,33.77
2019-03-24T09:07:11.641Z,34.40
2019-03-24T09:09:40.207Z,33.13
2019-03-24T09:12:08.811Z,34.73
2019-03-24T09:14:37.372Z,34.33
2019-03-24T09:17:05.960Z,35.17
2019-03-24T09:19:53.865Z,33.63
2019-03-24T09:22:22.456Z,32.93
2019-03-24T09:24:51.025Z,33.80
2019-03-24T09:27:19.787Z,34.07
2019-03-24T09:29:48.346Z,35.50
2019-03-24T09:32:16.936Z,34.47
2019-03-24T09:34:45.491Z,34.03
2019-03-24T09:37:14.100Z,35.13
2019-03-24T09:40:02.077Z,34.60
2019-03-24T09:42:30.677Z,33.93
2019-03-24T09:44:59.236Z,33.20
2019-03-24T09:47:27.838Z,34.90
2019-03-24T09:50:15.724Z,34.63
2019-03-24T09:53:03.838Z,33.97
2019-03-24T09:55:32.388Z,35.83
2019-03-24T09:58:20.317Z,35.77
2019-03-24T10:00:48.875Z,34.53
2019-03-24T10:03:17.472Z,33.13
2019-03-24T10:05:46.034Z,33.10
2019-03-24T10:08:14.632Z,34.83
2019-03-24T10:10:43.189Z,33.87
2019-03-24T10:13:11.780Z,35.27
2019-03-24T10:15:40.339Z,35.03
2019-03-24T10:18:08.931Z,36.43
2019-03-24T10:20:37.504Z,35.53
2019-03-24T10:23:06.158Z,36.57
2019-03-24T10:25:34.721Z,35.00
2019-03-24T10:28:03.312Z,36.10
2019-03-24T10:30:31.940Z,35.83
2019-03-24T10:33:00.609Z,35.00
2019-03-24T10:35:29.182Z,33.63
2019-03-24T10:37:57.771Z,34.33
2019-03-24T10:40:28.844Z,34.43
2019-03-24T10:42:56.651Z,35.40
2019-03-24T10:45:25.208Z,36.07
2019-03-24T10:47:53.805Z,35.77
2019-03-24T10:50:22.427Z,37.10
2019-03-24T10:52:51.023Z,35.53
2019-03-24T10:55:19.580Z,36.47
2019-03-24T10:57:48.174Z,37.07
2019-03-24T11:00:29.355Z,38.80
2019-03-24T11:02:57.952Z,36.80
2019-03-24T11:05:26.512Z,35.47
2019-03-24T11:07:55.180Z,37.07
2019-03-24T11:10:23.745Z,36.40
2019-03-24T11:12:52.332Z,36.50
2019-03-24T11:15:20.896Z,37.30
2019-03-24T11:17:49.489Z,36.57
2019-03-24T11:20:18.123Z,36.80
2019-03-24T11:22:46.712Z,36.33
2019-03-24T11:25:15.344Z,38.70
2019-03-24T11:27:43.933Z,35.03
2019-03-24T11:30:13.792Z,35.07
2019-03-24T11:32:42.928Z,33.70
2019-03-24T11:35:12.232Z,34.17
2019-03-24T11:37:40.904Z,34.60
2019-03-24T11:40:28.800Z,33.37
2019-03-24T11:42:57.387Z,33.63
2019-03-24T11:45:25.952Z,34.17
2019-03-24T11:48:07.258Z,31.83
2019-03-24T11:50:35.820Z,31.90
2019-03-24T11:53:23.757Z,31.70
2019-03-24T11:55:52.379Z,31.93
2019-03-24T11:58:20.979Z,32.43
2019-03-24T12:00:49.537Z,31.37
2019-03-24T12:03:18.138Z,32.17
2019-03-24T12:05:46.767Z,30.07
2019-03-24T12:08:15.424Z,31.10
2019-03-24T12:10:43.983Z,30.77
2019-03-24T12:13:31.921Z,29.83
2019-03-24T12:16:00.481Z,31.60
2019-03-24T12:18:48.415Z,31.63
2019-03-24T12:21:16.972Z,31.50
2019-03-24T12:23:45.559Z,30.73
2019-03-24T12:26:14.124Z,32.37
2019-03-24T12:28:42.711Z,31.77
2019-03-24T12:31:11.272Z,33.40
2019-03-24T12:33:39.864Z,32.27
2019-03-24T12:36:08.430Z,34.30
2019-03-24T12:38:37.017Z,32.57
2019-03-24T12:41:05.574Z,35.07
2019-03-24T12:43:34.168Z,34.23
2019-03-24T12:46:02.748Z,32.73
2019-03-24T12:48:31.344Z,33.63
2019-03-24T12:51:19.295Z,33.10
2019-03-24T12:53:47.912Z,35.90
2019-03-24T12:56:16.467Z,35.23
2019-03-24T12:58:45.077Z,35.00
2019-03-24T13:01:13.640Z,33.07
2019-03-24T13:03:42.302Z,33.73
2019-03-24T13:06:10.859Z,32.47
2019-03-24T13:08:58.792Z,33.43
2019-03-24T13:11:27.360Z,32.93
2019-03-24T13:13:55.953Z,31.67
2019-03-24T13:16:24.514Z,32.43
2019-03-24T13:18:53.217Z,31.50
2019-03-24T13:21:21.846Z,32.40
2019-03-24T13:24:09.781Z,32.77
2019-03-24T13:26:38.340Z,31.80
2019-03-24T13:29:06.945Z,33.57
2019-03-24T13:31:35.508Z,38.50
2019-03-24T13:34:04.244Z,37.13
2019-03-24T13:36:32.808Z,31.87
2019-03-24T13:39:01.401Z,32.23
2019-03-24T13:41:29.964Z,30.53
2019-03-24T13:44:17.895Z,30.90
2019-03-24T13:46:46.462Z,30.13
2019-03-24T13:49:15.057Z,31.07
2019-03-24T13:51:43.612Z,30.70
2019-03-24T13:54:12.267Z,31.67
2019-03-24T13:56:40.832Z,29.90
2019-03-24T13:59:09.483Z,31.13
2019-03-24T14:01:38.127Z,32.40
2019-03-24T14:04:26.066Z,31.23
2019-03-24T14:06:54.620Z,30.87
2019-03-24T14:09:23.216Z,30.30
2019-03-24T14:11:51.776Z,29.40
2019-03-24T14:14:20.440Z,29.50
2019-03-24T14:17:08.348Z,28.47
2019-03-24T14:19:37.007Z,28.10
2019-03-24T14:22:05.634Z,27.37
2019-03-24T14:24:53.572Z,27.20
2019-03-24T14:27:22.140Z,26.27
2019-03-24T14:29:50.728Z,27.67
2019-03-24T14:32:19.288Z,27.17
2019-03-24T14:34:47.880Z,25.80
2019-03-24T14:37:16.449Z,26.27
2019-03-24T14:39:45.036Z,25.93
2019-03-24T14:42:13.608Z,27.13
2019-03-24T14:44:42.198Z,25.10
2019-03-24T14:47:10.768Z,25.67
2019-03-24T14:49:39.360Z,25.40
2019-03-24T14:52:07.925Z,25.47
2019-03-24T14:54:36.525Z,24.10
2019-03-24T14:57:05.326Z,22.07
2019-03-24T14:59:53.257Z,22.73
2019-03-24T15:02:21.824Z,22.27
2019-03-24T15:04:50.483Z,22.27
2019-03-24T15:07:19.049Z,21.27
2019-03-24T15:09:47.646Z,21.87
2019-03-24T15:12:16.207Z,20.73
2019-03-24T15:14:44.804Z,23.10
2019-03-24T15:17:13.368Z,24.33
2019-03-24T15:19:42.029Z,22.90
2019-03-24T15:22:10.959Z,23.47
2019-03-24T15:24:39.548Z,24.13
2019-03-24T15:27:08.123Z,25.47
2019-03-24T15:29:36.715Z,23.00
2019-03-24T15:32:05.357Z,23.57
2019-03-24T15:34:33.919Z,23.23
2019-03-24T15:37:03.601Z,23.87
2019-03-24T15:39:32.463Z,22.60
2019-03-24T15:42:01.044Z,23.60
2019-03-24T15:44:29.607Z,25.30
2019-03-24T15:46:58.195Z,23.73
2019-03-24T15:49:46.128Z,25.17
2019-03-24T15:52:14.836Z,25.90
2019-03-24T15:54:43.476Z,24.93
2019-03-24T15:57:12.116Z,25.50
2019-03-24T15:59:42.993Z,25.57
2019-03-24T16:02:11.704Z,29.53
2019-03-24T16:04:40.849Z,25.20
2019-03-24T16:07:09.590Z,24.17
2019-03-24T16:09:57.522Z,23.33
2019-03-24T16:12:26.249Z,22.60
2019-03-24T16:14:55.273Z,21.77
2019-03-24T16:17:23.860Z,21.87
2019-03-24T16:19:52.661Z,22.03
2019-03-24T16:22:21.261Z,22.50
2019-03-24T16:24:49.833Z,22.13
2019-03-24T16:27:18.429Z,21.40
2019-03-24T16:29:46.987Z,21.30
2019-03-24T16:32:15.606Z,21.93
2019-03-24T16:34:44.159Z,19.80
2019-03-24T16:37:12.760Z,19.57
2019-03-24T16:39:41.325Z,19.40
2019-03-24T16:42:11.001Z,20.17
2019-03-24T16:44:39.564Z,19.97
2019-03-24T16:47:08.232Z,18.63
2019-03-24T16:49:36.794Z,18.43
2019-03-24T16:52:05.665Z,17.50
2019-03-24T16:54:34.224Z,18.17
2019-03-24T16:57:02.816Z,16.70
2019-03-24T16:59:31.383Z,18.47
2019-03-24T17:01:59.984Z,20.57
2019-03-24T17:04:28.542Z,18.83
2019-03-24T17:06:57.135Z,16.97
2019-03-24T17:09:25.763Z,15.33
2019-03-24T17:11:56.916Z,13.93
2019-03-24T17:14:24.569Z,14.00
2019-03-24T17:16:53.171Z,13.93
2019-03-24T17:19:21.724Z,12.43
2019-03-24T17:22:09.726Z,12.70
2019-03-24T17:24:38.284Z,12.33
2019-03-24T17:27:06.876Z,11.43
2019-03-24T17:29:35.444Z,12.50
2019-03-24T17:32:04.056Z,11.17
2019-03-24T17:34:32.600Z,10.90
2019-03-24T17:37:01.850Z,11.50
2019-03-24T17:39:30.405Z,12.23
2019-03-24T17:41:59.005Z,10.73
2019-03-24T17:44:46.904Z,11.50
2019-03-24T17:47:15.491Z,11.40
2019-03-24T17:49:44.056Z,10.83
2019-03-24T17:52:12.642Z,10.77
2019-03-24T17:54:41.212Z,11.07
2019-03-24T17:57:09.876Z,10.70
2019-03-24T17:59:38.442Z,11.17
2019-03-24T18:02:14.180Z,10.30
2019-03-24T18:04:37.379Z,10.07
2019-03-24T18:07:06.105Z,10.33
2019-03-24T18:09:34.664Z,10.50
2019-03-24T18:12:03.268Z,11.20
2019-03-24T18:14:31.829Z,12.00
2019-03-24T18:17:00.421Z,12.30
2019-03-24T18:19:28.985Z,13.27
2019-03-24T18:21:57.592Z,12.33
2019-03-24T18:24:26.159Z,12.10
2019-03-24T18:26:54.778Z,11.97
2019-03-24T18:29:23.383Z,13.37
2019-03-24T18:31:51.928Z,17.83
2019-03-24T18:34:20.484Z,18.20
2019-03-24T18:36:49.081Z,21.70
2019-03-24T18:39:17.640Z,16.50
2019-03-24T18:41:46.307Z,13.10
2019-03-24T18:44:14.877Z,14.27
2019-03-24T18:46:43.480Z,14.93
2019-03-24T18:49:12.046Z,14.97
2019-03-24T18:51:40.640Z,13.57
2019-03-24T18:54:09.202Z,14.33
2019-03-24T18:56:37.809Z,15.23
2019-03-24T18:59:06.368Z,15.53
2019-03-24T19:01:54.388Z,14.73
2019-03-24T19:04:22.956Z,16.00
2019-03-24T19:06:53.273Z,14.33
2019-03-24T19:09:21.836Z,14.60
2019-03-24T19:11:51.759Z,14.37
2019-03-24T19:14:40.239Z,15.00
2019-03-24T19:17:10.109Z,13.20
2019-03-24T19:19:38.921Z,13.87
2019-03-24T19:22:07.546Z,12.87
2019-03-24T19:24:36.101Z,11.87
2019-03-24T19:27:04.877Z,12.63
2019-03-24T19:29:33.441Z,11.67
2019-03-24T19:32:02.124Z,10.93
2019-03-24T19:34:31.060Z,11.07
2019-03-24T19:36:59.674Z,11.43
2019-03-24T19:39:29.669Z,11.07
2019-03-24T19:41:58.285Z,10.33
2019-03-24T19:44:26.848Z,11.40
2019-03-24T19:46:55.403Z,11.57
2019-03-24T19:49:24.029Z,10.40
2019-03-24T19:51:52.661Z,9.80
2019-03-24T19:54:21.273Z,9.97
2019-03-24T19:56:49.822Z,9.77
2019-03-24T19:59:18.440Z,10.80
2019-03-24T20:01:46.993Z,10.07
2019-03-24T20:04:15.612Z,9.80
2019-03-24T20:06:44.184Z,10.23
2019-03-24T20:09:12.798Z,9.90
2019-03-24T20:12:00.793Z,10.90
2019-03-24T20:14:29.412Z,11.13
2019-03-24T20:16:57.965Z,10.37
2019-03-24T20:19:45.895Z,10.67
2019-03-24T20:22:33.905Z,10.30
2019-03-24T20:25:02.464Z,10.80
2019-03-24T20:27:31.057Z,11.40
2019-03-24T20:29:59.621Z,10.50
2019-03-24T20:32:28.212Z,11.17
2019-03-24T20:34:56.774Z,10.67
2019-03-24T20:37:25.372Z,11.27
2019-03-24T20:39:53.932Z,11.20
2019-03-24T20:42:22.524Z,10.90
2019-03-24T20:45:10.598Z,10.97
2019-03-24T20:47:39.188Z,10.97
2019-03-24T20:50:10.188Z,10.50
2019-03-24T20:52:38.786Z,11.17
2019-03-24T20:55:08.288Z,11.27
2019-03-24T20:57:56.212Z,12.07
2019-03-24T21:00:35.269Z,12.73
2019-03-24T21:03:04.702Z,12.03
2019-03-24T21:05:33.323Z,11.57
2019-03-24T21:08:02.040Z,12.30
2019-03-24T21:10:30.669Z,12.97
2019-03-24T21:12:59.266Z,13.47
2019-03-24T21:15:27.819Z,13.30
2019-03-24T21:18:15.743Z,12.77
2019-03-24T21:20:44.376Z,14.67
2019-03-24T21:23:12.960Z,13.73
2019-03-24T21:25:41.524Z,14.43
2019-03-24T21:28:10.112Z,13.20
2019-03-24T21:30:40.612Z,13.30
2019-03-24T21:33:28.540Z,13.50
2019-03-24T21:35:57.095Z,12.50
2019-03-24T21:38:25.759Z,11.80
2019-03-24T21:40:54.319Z,11.03
2019-03-24T21:43:22.921Z,12.93
2019-03-24T21:46:10.887Z,12.50
2019-03-24T21:48:39.479Z,11.80
2019-03-24T21:51:08.040Z,17.10
2019-03-24T21:53:40.881Z,16.40
2019-03-24T21:56:07.087Z,18.53
2019-03-24T21:58:35.677Z,16.80
2019-03-24T22:01:04.373Z,15.77
2019-03-24T22:03:32.969Z,16.83
2019-03-24T22:06:01.534Z,12.80
2019-03-24T22:08:30.127Z,15.10
2019-03-24T22:10:58.684Z,14.70
2019-03-24T22:13:27.353Z,13.50
2019-03-24T22:15:55.904Z,14.67
2019-03-24T22:18:43.836Z,15.03
2019-03-24T22:21:12.397Z,13.13
2019-03-24T22:23:51.653Z,14.10
2019-03-24T22:26:11.200Z,13.13
2019-03-24T22:28:39.794Z,13.10
2019-03-24T22:31:08.352Z,13.53
2019-03-24T22:33:36.944Z,13.03
2019-03-24T22:36:05.581Z,14.10
2019-03-24T22:38:34.167Z,15.47
2019-03-24T22:41:02.724Z,14.87
2019-03-24T22:43:31.312Z,14.73
2019-03-24T22:45:59.875Z,14.17
2019-03-24T22:48:28.463Z,14.27
2019-03-24T22:50:57.023Z,14.63
2019-03-24T22:53:25.612Z,13.70
2019-03-24T22:55:54.182Z,15.53
2019-03-24T22:58:22.773Z,13.63
2019-03-24T23:00:54.344Z,13.70
2019-03-24T23:03:25.095Z,13.93
2019-03-24T23:05:53.457Z,14.40
2019-03-24T23:08:22.288Z,17.27
2019-03-24T23:10:50.924Z,17.13
2019-03-24T23:13:19.487Z,16.70
2019-03-24T23:15:48.088Z,16.97
2019-03-24T23:18:36.017Z,14.77
2019-03-24T23:21:23.912Z,16.23
2019-03-24T23:23:52.502Z,16.60
2019-03-24T23:26:21.061Z,15.90
2019-03-24T23:28:49.658Z,15.57
2019-03-24T23:31:18.216Z,15.20
2019-03-24T23:33:46.804Z,15.57
2019-03-24T23:36:15.376Z,15.05
2019-03-24T23:38:43.980Z,15.00
2019-03-24T23:41:12.547Z,14.65
2019-03-24T23:43:41.110Z,15.05
2019-03-24T23:46:09.712Z,14.20
2019-03-24T23:48:38.281Z,15.03
2019-03-24T23:51:06.875Z,13.62
2019-03-24T23:53:35.440Z,14.67
2019-03-24T23:56:23.444Z,13.93
2019-03-24T23:58:52.040Z,15.83
